sensor_id;sensor_type;location;lat;lon;timestamp;pressure;altitude;pressure_sealevel;temperature;humidity
59337;BME280;45115;52.002;4.686;2024-03-02T00:01:39;99969.63;;;6.17;91.89
59337;BME280;45115;52.002;4.686;2024-03-02T00:04:07;99981.69;;;6.11;92.67
59337;BME280;45115;52.002;4.686;2024-03-02T00:06:35;99991.25;;;6.05;92.56
59337;BME280;45115;52.002;4.686;2024-03-02T00:09:03;100000.75;;;6.01;93.15
59337;BME280;45115;52.002;4.686;2024-03-02T00:11:29;100002.34;;;6.04;92.63
59337;BME280;45115;52.002;4.686;2024-03-02T00:13:56;99994.75;;;6.02;92.45
59337;BME280;45115;52.002;4.686;2024-03-02T00:16:23;100009.44;;;5.96;93.34
59337;BME280;45115;52.002;4.686;2024-03-02T00:18:50;100004.31;;;5.96;93.01
59337;BME280;45115;52.002;4.686;2024-03-02T00:21:17;100011.97;;;5.96;92.96
59337;BME280;45115;52.002;4.686;2024-03-02T00:23:48;100012.91;;;5.93;93.69
59337;BME280;45115;52.002;4.686;2024-03-02T00:26:15;100019.59;;;5.96;93.16
59337;BME280;45115;52.002;4.686;2024-03-02T00:28:42;100014.66;;;5.91;93.32
59337;BME280;45115;52.002;4.686;2024-03-02T00:31:12;100017.16;;;5.93;93.58
59337;BME280;45115;52.002;4.686;2024-03-02T00:33:42;100016.50;;;5.86;93.89
59337;BME280;45115;52.002;4.686;2024-03-02T00:36:12;100011.50;;;5.83;93.95
59337;BME280;45115;52.002;4.686;2024-03-02T00:38:45;100014.03;;;5.83;93.82
59337;BME280;45115;52.002;4.686;2024-03-02T00:41:21;100000.63;;;5.78;93.31
59337;BME280;45115;52.002;4.686;2024-03-02T00:43:57;100000.53;;;5.81;93.55
59337;BME280;45115;52.002;4.686;2024-03-02T00:46:24;100004.84;;;5.79;93.00
59337;BME280;45115;52.002;4.686;2024-03-02T00:48:55;99996.47;;;5.75;93.71
59337;BME280;45115;52.002;4.686;2024-03-02T00:51:23;99988.84;;;5.75;93.13
59337;BME280;45115;52.002;4.686;2024-03-02T00:53:51;99997.34;;;5.74;92.80
59337;BME280;45115;52.002;4.686;2024-03-02T00:56:19;100005.16;;;5.70;93.66
59337;BME280;45115;52.002;4.686;2024-03-02T00:58:46;100010.16;;;5.73;92.98
59337;BME280;45115;52.002;4.686;2024-03-02T01:01:13;100029.84;;;5.68;92.69
59337;BME280;45115;52.002;4.686;2024-03-02T01:03:41;100024.88;;;5.63;92.43
59337;BME280;45115;52.002;4.686;2024-03-02T01:06:08;100027.38;;;5.65;92.59
59337;BME280;45115;52.002;4.686;2024-03-02T01:08:35;100014.75;;;5.62;92.75
59337;BME280;45115;52.002;4.686;2024-03-02T01:11:02;100015.69;;;5.59;92.97
59337;BME280;45115;52.002;4.686;2024-03-02T01:13:31;100013.28;;;5.55;92.88
59337;BME280;45115;52.002;4.686;2024-03-02T01:15:58;100004.84;;;5.53;92.43
59337;BME280;45115;52.002;4.686;2024-03-02T01:18:25;100004.91;;;5.51;92.77
59337;BME280;45115;52.002;4.686;2024-03-02T01:20:52;99993.22;;;5.46;93.16
59337;BME280;45115;52.002;4.686;2024-03-02T01:23:21;99990.59;;;5.47;93.48
59337;BME280;45115;52.002;4.686;2024-03-02T01:25:47;99998.31;;;5.46;93.22
59337;BME280;45115;52.002;4.686;2024-03-02T01:28:14;100016.75;;;5.52;93.11
59337;BME280;45115;52.002;4.686;2024-03-02T01:30:42;100027.91;;;5.48;93.48
59337;BME280;45115;52.002;4.686;2024-03-02T01:33:09;100025.22;;;5.53;93.70
59337;BME280;45115;52.002;4.686;2024-03-02T01:35:36;100044.56;;;5.58;93.65
59337;BME280;45115;52.002;4.686;2024-03-02T01:38:03;100040.38;;;5.56;93.24
59337;BME280;45115;52.002;4.686;2024-03-02T01:40:32;100032.81;;;5.54;92.99
59337;BME280;45115;52.002;4.686;2024-03-02T01:42:58;100022.56;;;5.56;92.69
59337;BME280;45115;52.002;4.686;2024-03-02T01:45:25;100031.00;;;5.58;93.32
59337;BME280;45115;52.002;4.686;2024-03-02T01:47:53;100016.66;;;5.55;93.46
59337;BME280;45115;52.002;4.686;2024-03-02T01:50:27;100010.78;;;5.53;93.87
59337;BME280;45115;52.002;4.686;2024-03-02T01:52:54;100036.88;;;5.60;93.56
59337;BME280;45115;52.002;4.686;2024-03-02T01:55:21;100041.13;;;5.59;94.13
59337;BME280;45115;52.002;4.686;2024-03-02T01:57:48;100050.56;;;5.56;94.23
59337;BME280;45115;52.002;4.686;2024-03-02T02:00:16;100027.63;;;5.57;94.04
59337;BME280;45115;52.002;4.686;2024-03-02T02:02:43;100036.88;;;5.60;93.71
59337;BME280;45115;52.002;4.686;2024-03-02T02:05:11;100025.03;;;5.59;93.62
59337;BME280;45115;52.002;4.686;2024-03-02T02:07:38;100031.19;;;5.52;93.79
59337;BME280;45115;52.002;4.686;2024-03-02T02:10:05;100030.31;;;5.53;93.36
59337;BME280;45115;52.002;4.686;2024-03-02T02:12:33;100039.97;;;5.43;94.01
59337;BME280;45115;52.002;4.686;2024-03-02T02:15:00;100036.50;;;5.46;93.57
59337;BME280;45115;52.002;4.686;2024-03-02T02:17:26;100050.09;;;5.44;93.89
59337;BME280;45115;52.002;4.686;2024-03-02T02:19:53;100050.97;;;5.43;94.24
59337;BME280;45115;52.002;4.686;2024-03-02T02:22:21;100037.06;;;5.54;93.35
59337;BME280;45115;52.002;4.686;2024-03-02T02:24:48;100045.38;;;5.59;92.56
59337;BME280;45115;52.002;4.686;2024-03-02T02:27:15;100050.38;;;5.62;93.16
59337;BME280;45115;52.002;4.686;2024-03-02T02:29:41;100052.19;;;5.58;93.50
59337;BME280;45115;52.002;4.686;2024-03-02T02:32:08;100055.47;;;5.62;92.96
59337;BME280;45115;52.002;4.686;2024-03-02T02:34:35;100043.50;;;5.65;92.32
59337;BME280;45115;52.002;4.686;2024-03-02T02:37:02;100045.16;;;5.66;93.03
59337;BME280;45115;52.002;4.686;2024-03-02T02:39:30;100057.16;;;5.63;92.95
59337;BME280;45115;52.002;4.686;2024-03-02T02:41:56;100059.53;;;5.67;92.69
59337;BME280;45115;52.002;4.686;2024-03-02T02:44:23;100055.19;;;5.71;91.87
59337;BME280;45115;52.002;4.686;2024-03-02T02:46:50;100050.38;;;5.62;92.30
59337;BME280;45115;52.002;4.686;2024-03-02T02:49:17;100048.72;;;5.61;92.18
59337;BME280;45115;52.002;4.686;2024-03-02T02:51:43;100048.13;;;5.53;92.39
59337;BME280;45115;52.002;4.686;2024-03-02T02:54:10;100050.47;;;5.59;92.52
59337;BME280;45115;52.002;4.686;2024-03-02T02:56:38;100055.56;;;5.59;93.02
59337;BME280;45115;52.002;4.686;2024-03-02T02:59:05;100052.09;;;5.61;92.73
59337;BME280;45115;52.002;4.686;2024-03-02T03:01:31;100055.63;;;5.57;92.79
59337;BME280;45115;52.002;4.686;2024-03-02T03:03:58;100056.53;;;5.55;92.88
59337;BME280;45115;52.002;4.686;2024-03-02T03:06:25;100043.91;;;5.52;92.93
59337;BME280;45115;52.002;4.686;2024-03-02T03:08:51;100048.25;;;5.48;93.35
59337;BME280;45115;52.002;4.686;2024-03-02T03:11:18;100052.47;;;5.49;93.09
59337;BME280;45115;52.002;4.686;2024-03-02T03:13:46;100055.84;;;5.50;93.50
59337;BME280;45115;52.002;4.686;2024-03-02T03:16:13;100050.56;;;5.56;93.27
59337;BME280;45115;52.002;4.686;2024-03-02T03:18:40;100055.66;;;5.56;92.88
59337;BME280;45115;52.002;4.686;2024-03-02T03:21:07;100056.44;;;5.58;92.98
59337;BME280;45115;52.002;4.686;2024-03-02T03:23:34;100053.91;;;5.58;92.95
59337;BME280;45115;52.002;4.686;2024-03-02T03:26:00;100060.94;;;5.50;93.32
59337;BME280;45115;52.002;4.686;2024-03-02T03:28:27;100052.41;;;5.51;92.74
59337;BME280;45115;52.002;4.686;2024-03-02T03:30:55;100059.72;;;5.61;92.97
59337;BME280;45115;52.002;4.686;2024-03-02T03:33:21;100065.75;;;5.59;92.74
59337;BME280;45115;52.002;4.686;2024-03-02T03:35:48;100061.25;;;5.67;92.41
59337;BME280;45115;52.002;4.686;2024-03-02T03:38:15;100076.75;;;5.59;91.78
59337;BME280;45115;52.002;4.686;2024-03-02T03:40:41;100065.66;;;5.62;92.26
59337;BME280;45115;52.002;4.686;2024-03-02T03:43:09;100070.84;;;5.59;92.29
59337;BME280;45115;52.002;4.686;2024-03-02T03:45:35;100072.59;;;5.57;92.02
59337;BME280;45115;52.002;4.686;2024-03-02T03:48:04;100077.69;;;5.57;91.75
59337;BME280;45115;52.002;4.686;2024-03-02T03:50:31;100067.91;;;5.44;92.17
59337;BME280;45115;52.002;4.686;2024-03-02T03:52:57;100079.97;;;5.38;92.39
59337;BME280;45115;52.002;4.686;2024-03-02T03:55:24;100072.50;;;5.32;92.13
59337;BME280;45115;52.002;4.686;2024-03-02T03:57:51;100079.41;;;5.28;92.29
59337;BME280;45115;52.002;4.686;2024-03-02T04:00:18;100075.31;;;5.23;92.32
59337;BME280;45115;52.002;4.686;2024-03-02T04:02:45;100078.06;;;5.17;92.19
59337;BME280;45115;52.002;4.686;2024-03-02T04:05:13;100081.72;;;5.08;92.78
59337;BME280;45115;52.002;4.686;2024-03-02T04:07:40;100085.28;;;5.01;92.60
59337;BME280;45115;52.002;4.686;2024-03-02T04:10:08;100087.13;;;4.96;93.09
59337;BME280;45115;52.002;4.686;2024-03-02T04:12:36;100083.91;;;4.91;93.32
59337;BME280;45115;52.002;4.686;2024-03-02T04:15:04;100085.56;;;4.92;92.99
59337;BME280;45115;52.002;4.686;2024-03-02T04:17:32;100091.50;;;4.92;93.88
59337;BME280;45115;52.002;4.686;2024-03-02T04:20:01;100092.16;;;4.97;93.49
59337;BME280;45115;52.002;4.686;2024-03-02T04:22:32;100088.00;;;4.95;93.73
59337;BME280;45115;52.002;4.686;2024-03-02T04:24:59;100084.59;;;4.96;93.75
59337;BME280;45115;52.002;4.686;2024-03-02T04:27:26;100083.75;;;4.95;93.84
59337;BME280;45115;52.002;4.686;2024-03-02T04:29:52;100090.50;;;4.96;93.51
59337;BME280;45115;52.002;4.686;2024-03-02T04:32:19;100083.13;;;4.89;93.33
59337;BME280;45115;52.002;4.686;2024-03-02T04:34:46;100089.28;;;4.80;93.46
59337;BME280;45115;52.002;4.686;2024-03-02T04:37:13;100093.69;;;4.73;94.07
59337;BME280;45115;52.002;4.686;2024-03-02T04:39:41;100086.22;;;4.67;94.26
59337;BME280;45115;52.002;4.686;2024-03-02T04:42:08;100075.97;;;4.70;94.35
59337;BME280;45115;52.002;4.686;2024-03-02T04:44:35;100087.06;;;4.68;94.12
59337;BME280;45115;52.002;4.686;2024-03-02T04:47:02;100090.63;;;4.62;94.15
59337;BME280;45115;52.002;4.686;2024-03-02T04:49:29;100100.06;;;4.57;94.17
59337;BME280;45115;52.002;4.686;2024-03-02T04:51:56;100100.94;;;4.56;94.67
59337;BME280;45115;52.002;4.686;2024-03-02T04:54:23;100103.44;;;4.58;95.05
59337;BME280;45115;52.002;4.686;2024-03-02T04:56:51;100112.69;;;4.60;94.55
59337;BME280;45115;52.002;4.686;2024-03-02T04:59:18;100111.06;;;4.58;94.57
59337;BME280;45115;52.002;4.686;2024-03-02T05:01:44;100118.63;;;4.61;94.52
59337;BME280;45115;52.002;4.686;2024-03-02T05:04:11;100115.31;;;4.57;95.02
59337;BME280;45115;52.002;4.686;2024-03-02T05:06:41;100121.84;;;4.66;94.90
59337;BME280;45115;52.002;4.686;2024-03-02T05:09:08;100117.41;;;4.74;94.62
59337;BME280;45115;52.002;4.686;2024-03-02T05:11:35;100106.28;;;4.78;94.43
59337;BME280;45115;52.002;4.686;2024-03-02T05:14:38;100111.41;;;4.76;94.49
59337;BME280;45115;52.002;4.686;2024-03-02T05:17:05;100108.16;;;4.71;94.34
59337;BME280;45115;52.002;4.686;2024-03-02T05:19:31;100110.09;;;4.63;94.34
59337;BME280;45115;52.002;4.686;2024-03-02T05:21:58;100117.84;;;4.57;94.52
59337;BME280;45115;52.002;4.686;2024-03-02T05:24:25;100123.09;;;4.51;94.25
59337;BME280;45115;52.002;4.686;2024-03-02T05:26:53;100118.00;;;4.51;94.60
59337;BME280;45115;52.002;4.686;2024-03-02T05:29:20;100124.81;;;4.51;94.12
59337;BME280;45115;52.002;4.686;2024-03-02T05:31:51;100133.19;;;4.54;94.58
59337;BME280;45115;52.002;4.686;2024-03-02T05:34:18;100127.16;;;4.58;94.40
59337;BME280;45115;52.002;4.686;2024-03-02T05:36:45;100136.19;;;4.68;93.85
59337;BME280;45115;52.002;4.686;2024-03-02T05:39:11;100133.69;;;4.67;94.26
59337;BME280;45115;52.002;4.686;2024-03-02T05:41:38;100138.72;;;4.68;94.26
59337;BME280;45115;52.002;4.686;2024-03-02T05:44:05;100132.53;;;4.79;94.09
59337;BME280;45115;52.002;4.686;2024-03-02T05:46:31;100135.72;;;4.87;93.21
59337;BME280;45115;52.002;4.686;2024-03-02T05:48:59;100134.72;;;4.92;93.15
59337;BME280;45115;52.002;4.686;2024-03-02T05:51:27;100135.34;;;4.99;93.08
59337;BME280;45115;52.002;4.686;2024-03-02T05:53:53;100136.84;;;5.06;92.59
59337;BME280;45115;52.002;4.686;2024-03-02T05:56:20;100140.13;;;5.11;92.34
59337;BME280;45115;52.002;4.686;2024-03-02T05:58:47;100139.06;;;5.18;92.47
59337;BME280;45115;52.002;4.686;2024-03-02T06:01:26;100137.50;;;5.14;92.28
59337;BME280;45115;52.002;4.686;2024-03-02T06:03:55;100135.66;;;5.19;92.08
59337;BME280;45115;52.002;4.686;2024-03-02T06:06:23;100135.44;;;5.25;92.08
59337;BME280;45115;52.002;4.686;2024-03-02T06:08:50;100138.06;;;5.22;92.05
59337;BME280;45115;52.002;4.686;2024-03-02T06:11:16;100133.75;;;5.26;91.80
59337;BME280;45115;52.002;4.686;2024-03-02T06:13:46;100144.00;;;5.23;91.70
59337;BME280;45115;52.002;4.686;2024-03-02T06:16:13;100138.28;;;5.16;92.13
59337;BME280;45115;52.002;4.686;2024-03-02T06:18:40;100141.00;;;5.10;92.24
59337;BME280;45115;52.002;4.686;2024-03-02T06:21:06;100152.03;;;5.09;91.88
59337;BME280;45115;52.002;4.686;2024-03-02T06:23:34;100148.63;;;5.10;92.09
59337;BME280;45115;52.002;4.686;2024-03-02T06:26:02;100151.41;;;5.01;92.19
59337;BME280;45115;52.002;4.686;2024-03-02T06:28:28;100159.13;;;4.98;91.97
59337;BME280;45115;52.002;4.686;2024-03-02T06:30:55;100156.88;;;4.87;91.92
59337;BME280;45115;52.002;4.686;2024-03-02T06:33:26;100157.75;;;4.86;91.92
59337;BME280;45115;52.002;4.686;2024-03-02T06:36:01;100158.41;;;4.93;91.51
59337;BME280;45115;52.002;4.686;2024-03-02T06:38:28;100160.81;;;4.97;91.27
59337;BME280;45115;52.002;4.686;2024-03-02T06:40:58;100166.56;;;5.04;91.06
59337;BME280;45115;52.002;4.686;2024-03-02T06:43:25;100160.66;;;5.03;91.36
59337;BME280;45115;52.002;4.686;2024-03-02T06:45:52;100169.19;;;5.01;91.63
59337;BME280;45115;52.002;4.686;2024-03-02T06:51:10;100167.53;;;5.00;90.93
59337;BME280;45115;52.002;4.686;2024-03-02T06:53:37;100166.66;;;5.01;90.57
59337;BME280;45115;52.002;4.686;2024-03-02T06:56:06;100164.81;;;5.06;90.44
59337;BME280;45115;52.002;4.686;2024-03-02T06:58:33;100170.75;;;5.06;90.46
59337;BME280;45115;52.002;4.686;2024-03-02T07:01:00;100180.75;;;5.13;89.53
59337;BME280;45115;52.002;4.686;2024-03-02T07:03:27;100174.97;;;5.07;89.83
59337;BME280;45115;52.002;4.686;2024-03-02T07:05:54;100180.25;;;5.00;89.90
59337;BME280;45115;52.002;4.686;2024-03-02T07:08:20;100181.38;;;4.90;90.46
59337;BME280;45115;52.002;4.686;2024-03-02T07:10:47;100187.34;;;4.89;90.49
59337;BME280;45115;52.002;4.686;2024-03-02T07:13:16;100187.47;;;4.84;90.56
59337;BME280;45115;52.002;4.686;2024-03-02T07:15:42;100193.50;;;4.80;90.38
59337;BME280;45115;52.002;4.686;2024-03-02T07:18:36;100199.44;;;4.79;90.02
59337;BME280;45115;52.002;4.686;2024-03-02T07:21:06;100200.28;;;4.80;90.25
59337;BME280;45115;52.002;4.686;2024-03-02T07:23:34;100191.81;;;4.79;90.11
59337;BME280;45115;52.002;4.686;2024-03-02T07:26:00;100194.97;;;4.89;90.37
59337;BME280;45115;52.002;4.686;2024-03-02T07:28:29;100199.00;;;4.96;89.75
59337;BME280;45115;52.002;4.686;2024-03-02T07:30:58;100198.81;;;5.03;89.72
59337;BME280;45115;52.002;4.686;2024-03-02T07:33:26;100202.91;;;5.09;89.34
59337;BME280;45115;52.002;4.686;2024-03-02T07:35:53;100203.13;;;5.00;89.93
59337;BME280;45115;52.002;4.686;2024-03-02T07:38:20;100216.66;;;5.02;89.72
59337;BME280;45115;52.002;4.686;2024-03-02T07:40:47;100210.56;;;5.07;89.57
59337;BME280;45115;52.002;4.686;2024-03-02T07:43:16;100208.22;;;5.00;90.21
59337;BME280;45115;52.002;4.686;2024-03-02T07:45:44;100211.56;;;5.02;89.97
59337;BME280;45115;52.002;4.686;2024-03-02T07:48:11;100211.63;;;5.30;89.24
59337;BME280;45115;52.002;4.686;2024-03-02T07:50:40;100223.16;;;5.43;88.54
59337;BME280;45115;52.002;4.686;2024-03-02T07:53:07;100220.88;;;5.93;87.93
59337;BME280;45115;52.002;4.686;2024-03-02T07:55:33;100221.06;;;5.85;87.55
59337;BME280;45115;52.002;4.686;2024-03-02T07:58:01;100214.81;;;5.97;87.36
59337;BME280;45115;52.002;4.686;2024-03-02T08:00:28;100216.06;;;6.38;85.59
59337;BME280;45115;52.002;4.686;2024-03-02T08:02:59;100217.03;;;6.60;84.93
59337;BME280;45115;52.002;4.686;2024-03-02T08:05:29;100219.00;;;6.52;84.96
59337;BME280;45115;52.002;4.686;2024-03-02T08:07:56;100224.91;;;6.28;85.23
59337;BME280;45115;52.002;4.686;2024-03-02T08:10:23;100226.78;;;6.21;85.88
59337;BME280;45115;52.002;4.686;2024-03-02T08:12:50;100221.66;;;6.23;86.04
59337;BME280;45115;52.002;4.686;2024-03-02T08:15:16;100220.81;;;6.22;86.22
59337;BME280;45115;52.002;4.686;2024-03-02T08:17:44;100232.69;;;6.23;85.55
59337;BME280;45115;52.002;4.686;2024-03-02T08:20:15;100225.56;;;6.33;85.05
59337;BME280;45115;52.002;4.686;2024-03-02T08:22:42;100213.47;;;6.39;84.99
59337;BME280;45115;52.002;4.686;2024-03-02T08:25:09;100224.25;;;6.48;83.94
59337;BME280;45115;52.002;4.686;2024-03-02T08:27:36;100211.47;;;6.49;83.63
59337;BME280;45115;52.002;4.686;2024-03-02T08:30:03;100206.16;;;6.55;84.04
59337;BME280;45115;52.002;4.686;2024-03-02T08:32:32;100212.63;;;6.65;84.12
59337;BME280;45115;52.002;4.686;2024-03-02T08:34:58;100204.88;;;6.68;81.98
59337;BME280;45115;52.002;4.686;2024-03-02T08:37:26;100206.38;;;6.74;83.13
59337;BME280;45115;52.002;4.686;2024-03-02T08:39:54;100198.94;;;6.93;82.23
59337;BME280;45115;52.002;4.686;2024-03-02T08:42:21;100197.47;;;7.10;81.31
59337;BME280;45115;52.002;4.686;2024-03-02T08:44:48;100198.69;;;7.24;80.94
59337;BME280;45115;52.002;4.686;2024-03-02T08:47:15;100204.63;;;7.24;81.02
59337;BME280;45115;52.002;4.686;2024-03-02T08:49:42;100208.69;;;7.30;81.19
59337;BME280;45115;52.002;4.686;2024-03-02T08:52:09;100216.28;;;7.31;80.06
59337;BME280;45115;52.002;4.686;2024-03-02T08:54:37;100212.63;;;7.38;81.13
59337;BME280;45115;52.002;4.686;2024-03-02T08:57:04;100213.38;;;7.40;79.75
59337;BME280;45115;52.002;4.686;2024-03-02T08:59:31;100229.16;;;7.52;80.21
59337;BME280;45115;52.002;4.686;2024-03-02T09:01:58;100230.00;;;7.52;79.05
59337;BME280;45115;52.002;4.686;2024-03-02T09:04:25;100226.34;;;7.59;79.18
59337;BME280;45115;52.002;4.686;2024-03-02T09:06:54;100224.56;;;7.61;79.10
59337;BME280;45115;52.002;4.686;2024-03-02T09:09:20;100229.31;;;7.70;78.59
59337;BME280;45115;52.002;4.686;2024-03-02T09:11:48;100229.69;;;7.83;78.70
59337;BME280;45115;52.002;4.686;2024-03-02T09:14:15;100229.41;;;7.91;77.94
59337;BME280;45115;52.002;4.686;2024-03-02T09:16:42;100231.13;;;7.90;77.65
59337;BME280;45115;52.002;4.686;2024-03-02T09:19:09;100235.56;;;7.85;77.66
59337;BME280;45115;52.002;4.686;2024-03-02T09:21:36;100235.16;;;7.96;77.86
59337;BME280;45115;52.002;4.686;2024-03-02T09:24:03;100230.53;;;8.05;77.22
59337;BME280;45115;52.002;4.686;2024-03-02T09:26:32;100236.06;;;8.17;77.04
59337;BME280;45115;52.002;4.686;2024-03-02T09:29:00;100238.97;;;8.29;75.65
59337;BME280;45115;52.002;4.686;2024-03-02T09:31:27;100248.56;;;8.46;76.12
59337;BME280;45115;52.002;4.686;2024-03-02T09:33:53;100234.75;;;8.50;75.85
59337;BME280;45115;52.002;4.686;2024-03-02T09:36:28;100245.38;;;8.61;76.18
59337;BME280;45115;52.002;4.686;2024-03-02T09:38:59;100240.97;;;8.65;74.46
59337;BME280;45115;52.002;4.686;2024-03-02T09:41:26;100242.75;;;8.63;74.17
59337;BME280;45115;52.002;4.686;2024-03-02T09:43:54;100234.00;;;8.68;73.99
59337;BME280;45115;52.002;4.686;2024-03-02T09:46:23;100233.38;;;8.83;74.84
59337;BME280;45115;52.002;4.686;2024-03-02T09:48:49;100237.97;;;8.96;74.54
59337;BME280;45115;52.002;4.686;2024-03-02T09:51:16;100236.19;;;8.98;73.41
59337;BME280;45115;52.002;4.686;2024-03-02T09:53:45;100247.25;;;8.98;72.46
59337;BME280;45115;52.002;4.686;2024-03-02T09:56:13;100246.97;;;9.04;73.81
59337;BME280;45115;52.002;4.686;2024-03-02T09:58:41;100250.44;;;9.03;72.06
59337;BME280;45115;52.002;4.686;2024-03-02T10:01:09;100251.53;;;9.18;73.13
59337;BME280;45115;52.002;4.686;2024-03-02T10:03:38;100254.31;;;9.32;72.15
59337;BME280;45115;52.002;4.686;2024-03-02T10:06:21;100250.78;;;9.35;71.25
59337;BME280;45115;52.002;4.686;2024-03-02T10:08:48;100249.19;;;9.32;71.34
59337;BME280;45115;52.002;4.686;2024-03-02T10:11:26;100257.63;;;9.34;70.92
59337;BME280;45115;52.002;4.686;2024-03-02T10:14:04;100256.78;;;9.34;70.78
59337;BME280;45115;52.002;4.686;2024-03-02T10:16:34;100250.19;;;9.48;70.67
59337;BME280;45115;52.002;4.686;2024-03-02T10:19:15;100249.34;;;9.48;70.14
59337;BME280;45115;52.002;4.686;2024-03-02T10:21:42;100245.69;;;9.54;69.83
59337;BME280;45115;52.002;4.686;2024-03-02T10:24:08;100237.38;;;9.48;69.68
59337;BME280;45115;52.002;4.686;2024-03-02T10:26:35;100227.97;;;9.68;70.49
59337;BME280;45115;52.002;4.686;2024-03-02T10:29:02;100222.25;;;9.99;68.27
59337;BME280;45115;52.002;4.686;2024-03-02T10:31:30;100219.97;;;9.93;66.64
59337;BME280;45115;52.002;4.686;2024-03-02T10:33:57;100224.03;;;10.15;66.45
59337;BME280;45115;52.002;4.686;2024-03-02T10:36:26;100229.00;;;10.18;66.78
59337;BME280;45115;52.002;4.686;2024-03-02T10:38:53;100221.84;;;10.44;66.47
59337;BME280;45115;52.002;4.686;2024-03-02T10:41:23;100219.44;;;10.58;66.02
59337;BME280;45115;52.002;4.686;2024-03-02T10:43:52;100221.72;;;10.64;64.82
59337;BME280;45115;52.002;4.686;2024-03-02T10:46:27;100212.34;;;10.63;64.25
59337;BME280;45115;52.002;4.686;2024-03-02T10:48:54;100216.25;;;10.53;65.07
59337;BME280;45115;52.002;4.686;2024-03-02T10:51:21;100198.75;;;10.61;64.30
59337;BME280;45115;52.002;4.686;2024-03-02T10:53:49;100207.53;;;10.57;64.01
59337;BME280;45115;52.002;4.686;2024-03-02T10:56:21;100201.56;;;10.39;64.26
59337;BME280;45115;52.002;4.686;2024-03-02T10:58:51;100205.31;;;10.49;63.24
59337;BME280;45115;52.002;4.686;2024-03-02T11:01:21;100204.63;;;10.46;63.33
59337;BME280;45115;52.002;4.686;2024-03-02T11:03:48;100206.44;;;10.44;63.48
59337;BME280;45115;52.002;4.686;2024-03-02T11:06:16;100194.84;;;10.54;62.74
59337;BME280;45115;52.002;4.686;2024-03-02T11:08:44;100197.31;;;10.73;61.98
59337;BME280;45115;52.002;4.686;2024-03-02T11:11:17;100190.13;;;10.79;61.04
59337;BME280;45115;52.002;4.686;2024-03-02T11:13:49;100194.66;;;10.92;61.32
59337;BME280;45115;52.002;4.686;2024-03-02T11:16:21;100194.75;;;10.90;60.69
59337;BME280;45115;52.002;4.686;2024-03-02T11:18:55;100202.63;;;11.03;60.45
59337;BME280;45115;52.002;4.686;2024-03-02T11:21:24;100200.75;;;11.22;60.19
59337;BME280;45115;52.002;4.686;2024-03-02T11:23:51;100201.41;;;11.10;59.25
59337;BME280;45115;52.002;4.686;2024-03-02T11:26:20;100207.81;;;11.18;60.15
59337;BME280;45115;52.002;4.686;2024-03-02T11:28:48;100201.09;;;11.16;58.23
59337;BME280;45115;52.002;4.686;2024-03-02T11:31:14;100191.81;;;11.13;59.09
59337;BME280;45115;52.002;4.686;2024-03-02T11:33:41;100192.19;;;11.39;60.93
59337;BME280;45115;52.002;4.686;2024-03-02T11:36:09;100195.31;;;11.28;58.74
59337;BME280;45115;52.002;4.686;2024-03-02T11:38:36;100189.56;;;11.23;58.37
59337;BME280;45115;52.002;4.686;2024-03-02T11:41:06;100176.56;;;11.26;58.30
59337;BME280;45115;52.002;4.686;2024-03-02T11:43:38;100179.75;;;11.31;60.64
59337;BME280;45115;52.002;4.686;2024-03-02T11:46:06;100179.94;;;11.60;60.47
59337;BME280;45115;52.002;4.686;2024-03-02T11:48:35;100174.88;;;11.42;59.78
59337;BME280;45115;52.002;4.686;2024-03-02T11:51:02;100167.50;;;11.36;59.01
59337;BME280;45115;52.002;4.686;2024-03-02T11:53:30;100184.28;;;11.26;59.25
59337;BME280;45115;52.002;4.686;2024-03-02T11:55:58;100165.06;;;11.33;59.43
59337;BME280;45115;52.002;4.686;2024-03-02T11:58:24;100165.50;;;11.41;59.23
59337;BME280;45115;52.002;4.686;2024-03-02T12:00:54;100152.91;;;11.52;59.14
59337;BME280;45115;52.002;4.686;2024-03-02T12:03:21;100160.19;;;11.60;59.76
59337;BME280;45115;52.002;4.686;2024-03-02T12:05:49;100156.72;;;11.77;58.75
59337;BME280;45115;52.002;4.686;2024-03-02T12:08:16;100151.00;;;11.72;57.12
59337;BME280;45115;52.002;4.686;2024-03-02T12:10:43;100150.50;;;11.65;57.39
59337;BME280;45115;52.002;4.686;2024-03-02T12:13:21;100152.25;;;11.65;57.97
59337;BME280;45115;52.002;4.686;2024-03-02T12:15:54;100141.97;;;11.65;58.37
59337;BME280;45115;52.002;4.686;2024-03-02T12:18:22;100134.66;;;11.73;57.21
59337;BME280;45115;52.002;4.686;2024-03-02T12:20:49;100135.50;;;11.73;57.14
59337;BME280;45115;52.002;4.686;2024-03-02T12:23:18;100140.31;;;11.64;57.24
59337;BME280;45115;52.002;4.686;2024-03-02T12:25:44;100132.91;;;11.58;57.65
59337;BME280;45115;52.002;4.686;2024-03-02T12:28:11;100133.84;;;11.57;56.97
59337;BME280;45115;52.002;4.686;2024-03-02T12:30:38;100124.47;;;11.56;57.11
59337;BME280;45115;52.002;4.686;2024-03-02T12:33:06;100119.41;;;11.70;58.72
59337;BME280;45115;52.002;4.686;2024-03-02T12:35:33;100117.66;;;11.86;57.91
59337;BME280;45115;52.002;4.686;2024-03-02T12:38:00;100128.69;;;11.88;56.48
59337;BME280;45115;52.002;4.686;2024-03-02T12:40:27;100128.03;;;11.69;58.33
59337;BME280;45115;52.002;4.686;2024-03-02T12:42:53;100131.03;;;11.77;58.12
59337;BME280;45115;52.002;4.686;2024-03-02T12:45:20;100132.84;;;11.75;58.25
59337;BME280;45115;52.002;4.686;2024-03-02T12:47:49;100129.94;;;11.97;57.75
59337;BME280;45115;52.002;4.686;2024-03-02T12:50:17;100117.25;;;12.24;56.81
59337;BME280;45115;52.002;4.686;2024-03-02T12:52:50;100125.91;;;12.37;57.70
59337;BME280;45115;52.002;4.686;2024-03-02T12:55:20;100116.06;;;12.43;56.52
59337;BME280;45115;52.002;4.686;2024-03-02T12:57:46;100114.94;;;12.19;55.46
59337;BME280;45115;52.002;4.686;2024-03-02T13:00:13;100115.91;;;11.86;55.74
59337;BME280;45115;52.002;4.686;2024-03-02T13:02:41;100116.00;;;11.85;56.68
59337;BME280;45115;52.002;4.686;2024-03-02T13:05:08;100115.50;;;12.24;54.86